createdAt,value
2023-02-06T00:00:03.233Z,8.5
2023-02-06T00:02:17.489Z,8.4
2023-02-06T00:03:24.016Z,8.5
2023-02-06T00:04:31.210Z,8.5
2023-02-06T00:05:38.375Z,8.5
2023-02-06T00:06:45.306Z,8.5
2023-02-06T00:07:52.527Z,8.5
2023-02-06T00:08:59.555Z,8.5
2023-02-06T00:10:06.217Z,8.5
2023-02-06T00:11:13.219Z,8.5
2023-02-06T00:12:20.387Z,8.5
2023-02-06T00:13:27.487Z,8.5
2023-02-06T00:14:34.600Z,8.5
2023-02-06T00:15:41.224Z,8.5
2023-02-06T00:16:48.267Z,8.5
2023-02-06T00:17:55.336Z,8.5
2023-02-06T00:19:02.455Z,8.6
2023-02-06T00:20:30.966Z,8.6
2023-02-06T00:21:16.206Z,8.6
2023-02-06T00:22:23.230Z,8.6
2023-02-06T00:23:30.413Z,8.6
2023-02-06T00:24:37.501Z,8.6
2023-02-06T00:25:44.567Z,8.7
2023-02-06T00:26:51.247Z,8.7
2023-02-06T00:27:58.357Z,8.7
2023-02-06T00:29:05.352Z,8.8
2023-02-06T00:30:15.476Z,8.8
2023-02-06T00:31:19.766Z,8.8
2023-02-06T00:32:26.370Z,8.8
2023-02-06T00:33:33.265Z,8.8
2023-02-06T00:34:40.391Z,8.8
2023-02-06T00:35:47.573Z,8.8
2023-02-06T00:36:54.600Z,8.8
2023-02-06T00:38:01.162Z,8.8
2023-02-06T00:39:08.313Z,8.8
2023-02-06T00:40:15.576Z,8.8
2023-02-06T00:41:22.497Z,8.8
2023-02-06T00:43:36.225Z,8.8
2023-02-06T00:44:43.316Z,8.8
2023-02-06T00:45:50.403Z,8.8
2023-02-06T00:46:57.521Z,8.8
2023-02-06T00:48:04.621Z,8.8
2023-02-06T00:49:11.213Z,8.8
2023-02-06T00:50:18.260Z,8.8
2023-02-06T00:51:25.448Z,8.8
2023-02-06T00:52:32.559Z,8.8
2023-02-06T00:53:39.598Z,8.8
2023-02-06T00:54:46.220Z,8.8
2023-02-06T00:55:53.313Z,8.8
2023-02-06T00:57:00.405Z,8.8
2023-02-06T00:58:07.511Z,8.8
2023-02-06T00:59:14.084Z,8.8
2023-02-06T01:00:21.239Z,8.8
2023-02-06T01:01:28.312Z,8.8
2023-02-06T01:02:35.494Z,8.8
2023-02-06T01:03:42.521Z,8.9
2023-02-06T01:05:56.220Z,8.9
2023-02-06T01:07:03.422Z,8.9
2023-02-06T01:08:10.411Z,8.9
2023-02-06T01:09:17.505Z,8.9
2023-02-06T01:10:24.092Z,8.9
2023-02-06T01:11:31.238Z,8.9
2023-02-06T01:12:38.359Z,8.9
2023-02-06T01:13:45.393Z,8.9
2023-02-06T01:14:52.511Z,8.9
2023-02-06T01:15:59.652Z,8.9
2023-02-06T01:17:06.214Z,8.9
2023-02-06T01:18:13.286Z,8.9
2023-02-06T01:19:20.951Z,8.8
2023-02-06T01:20:27.618Z,8.8
2023-02-06T01:21:34.126Z,8.8
2023-02-06T01:22:41.267Z,8.8
2023-02-06T01:23:48.883Z,8.8
2023-02-06T01:24:55.406Z,8.8
2023-02-06T01:27:09.196Z,8.8
2023-02-06T01:28:16.357Z,8.8
2023-02-06T01:29:23.349Z,8.8
2023-02-06T01:30:30.509Z,8.8
2023-02-06T01:31:37.628Z,8.8
2023-02-06T01:32:44.181Z,8.8
2023-02-06T01:33:51.238Z,8.8
2023-02-06T01:34:58.303Z,8.8
2023-02-06T01:36:05.453Z,8.8
2023-02-06T01:37:12.570Z,8.8
2023-02-06T01:38:19.171Z,8.8
2023-02-06T01:39:26.264Z,8.8
2023-02-06T01:40:33.363Z,8.8
2023-02-06T01:41:40.421Z,8.8
2023-02-06T01:42:47.611Z,8.8
2023-02-06T01:43:54.145Z,8.8
2023-02-06T01:45:01.303Z,8.8
2023-02-06T01:46:08.394Z,8.8
2023-02-06T01:47:15.474Z,8.8
2023-02-06T01:48:22.568Z,8.8
2023-02-06T01:49:29.209Z,8.8
2023-02-06T01:50:36.296Z,8.8
2023-02-06T01:51:43.366Z,8.8
2023-02-06T01:52:50.500Z,8.8
2023-02-06T01:53:57.610Z,8.8
2023-02-06T01:55:04.132Z,8.8
2023-02-06T01:56:11.286Z,8.8
2023-02-06T01:57:18.538Z,8.8
2023-02-06T01:58:25.509Z,8.8
2023-02-06T01:59:32.584Z,8.8
2023-02-06T02:00:39.233Z,8.8
2023-02-06T02:01:46.305Z,8.8
2023-02-06T02:02:53.458Z,8.8
2023-02-06T02:04:00.501Z,8.8
2023-02-06T02:05:07.613Z,8.8
2023-02-06T02:06:14.203Z,8.8
2023-02-06T02:09:35.534Z,8.7
2023-02-06T02:11:49.162Z,8.7
2023-02-06T02:12:56.399Z,8.7
2023-02-06T02:14:03.398Z,8.7
2023-02-06T02:15:10.556Z,8.7
2023-02-06T02:16:17.647Z,8.7
2023-02-06T02:17:24.220Z,8.7
2023-02-06T02:18:31.301Z,8.7
2023-02-06T02:19:38.465Z,8.7
2023-02-06T02:20:45.515Z,8.6
2023-02-06T02:21:52.626Z,8.7
2023-02-06T02:22:59.343Z,8.6
2023-02-06T02:24:06.332Z,8.6
2023-02-06T02:25:13.395Z,8.6
2023-02-06T02:26:20.542Z,8.7
2023-02-06T02:27:28.260Z,8.7
2023-02-06T02:28:34.235Z,8.6
2023-02-06T02:29:41.343Z,8.6
2023-02-06T02:30:48.510Z,8.6
2023-02-06T02:31:55.496Z,8.6
2023-02-06T02:37:30.564Z,8.6
2023-02-06T02:50:54.369Z,8.6
2023-02-06T02:52:01.371Z,8.6
2023-02-06T02:53:08.468Z,8.6
2023-02-06T02:54:15.581Z,8.6
2023-02-06T02:55:22.173Z,8.6
2023-02-06T02:56:29.252Z,8.6
2023-02-06T02:57:36.398Z,8.6
2023-02-06T02:58:43.449Z,8.6
2023-02-06T02:59:50.686Z,8.6
2023-02-06T03:00:57.185Z,8.6
2023-02-06T03:02:04.317Z,8.6
2023-02-06T03:03:11.355Z,8.6
2023-02-06T03:04:18.468Z,8.6
2023-02-06T03:05:25.576Z,8.6
2023-02-06T03:06:32.198Z,8.6
2023-02-06T03:07:39.383Z,8.6
2023-02-06T03:08:46.368Z,8.6
2023-02-06T03:09:53.467Z,8.6
2023-02-06T03:11:00.602Z,8.6
2023-02-06T03:13:14.278Z,8.6
2023-02-06T03:14:21.399Z,8.6
2023-02-06T03:15:28.489Z,8.6
2023-02-06T03:16:35.717Z,8.6
2023-02-06T03:17:42.333Z,8.6
2023-02-06T03:18:49.302Z,8.6
2023-02-06T03:19:56.384Z,8.6
2023-02-06T03:21:03.466Z,8.6
2023-02-06T03:22:10.593Z,8.6
2023-02-06T03:23:17.249Z,8.6
2023-02-06T03:24:24.304Z,8.6
2023-02-06T03:25:31.461Z,8.6
2023-02-06T03:26:38.504Z,8.6
2023-02-06T03:27:45.707Z,8.6
2023-02-06T03:28:52.152Z,8.6
2023-02-06T03:29:58.845Z,8.6
2023-02-06T03:29:59.362Z,8.6
2023-02-06T03:31:06.978Z,8.6
2023-02-06T03:32:13.489Z,8.6
2023-02-06T03:33:20.612Z,8.6
2023-02-06T03:34:27.187Z,8.6
2023-02-06T03:35:34.718Z,8.6
2023-02-06T03:36:41.416Z,8.6
2023-02-06T03:37:48.589Z,8.6
2023-02-06T03:40:02.216Z,8.6
2023-02-06T03:41:09.320Z,8.6
2023-02-06T03:42:16.412Z,8.6
2023-02-06T03:43:23.490Z,8.6
2023-02-06T03:44:30.099Z,8.6
2023-02-06T03:45:37.594Z,8.6
2023-02-06T03:46:44.299Z,8.6
2023-02-06T03:47:51.502Z,8.6
2023-02-06T03:48:58.547Z,8.6
2023-02-06T03:50:05.147Z,8.6
2023-02-06T03:51:12.277Z,8.6
2023-02-06T03:52:19.351Z,8.6
2023-02-06T03:53:26.468Z,8.6
2023-02-06T03:54:33.551Z,8.6
2023-02-06T03:55:40.148Z,8.6
2023-02-06T03:56:47.231Z,8.6
2023-02-06T03:57:54.409Z,8.6
2023-02-06T03:59:01.464Z,8.6
2023-02-06T04:00:08.607Z,8.6
2023-02-06T04:01:15.182Z,8.6
2023-02-06T04:02:22.288Z,8.6
2023-02-06T04:03:29.351Z,8.6
2023-02-06T04:04:36.470Z,8.6
2023-02-06T04:05:43.545Z,8.6
2023-02-06T04:06:50.139Z,8.6
2023-02-06T04:07:57.336Z,8.6
2023-02-06T04:09:04.324Z,8.6
2023-02-06T04:10:11.431Z,8.6
2023-02-06T04:11:18.572Z,8.6
2023-02-06T04:12:25.178Z,8.6
2023-02-06T04:13:32.256Z,8.6
2023-02-06T04:44:48.712Z,8.8
2023-02-06T04:45:55.222Z,8.8
2023-02-06T04:47:02.268Z,8.8
2023-02-06T04:48:09.413Z,8.8
2023-02-06T04:49:16.660Z,8.8
2023-02-06T04:50:23.112Z,8.8
2023-02-06T04:51:30.261Z,8.8
2023-02-06T04:52:37.401Z,8.8
2023-02-06T04:53:44.409Z,8.7
2023-02-06T04:54:51.555Z,8.8
2023-02-06T04:55:58.130Z,8.8
2023-02-06T04:57:05.174Z,8.8
2023-02-06T04:58:12.374Z,8.8
2023-02-06T04:59:19.422Z,8.8
2023-02-06T05:00:26.542Z,8.8
2023-02-06T05:01:33.236Z,8.8
2023-02-06T05:02:40.299Z,8.8
2023-02-06T05:03:47.287Z,8.8
2023-02-06T05:04:54.406Z,8.8
2023-02-06T05:06:01.581Z,8.8
2023-02-06T05:08:15.218Z,8.8
2023-02-06T05:09:22.317Z,8.8
2023-02-06T05:10:28.920Z,8.8
2023-02-06T05:10:29.394Z,8.8
2023-02-06T05:11:36.574Z,8.8
2023-02-06T05:12:43.155Z,8.8
2023-02-06T05:13:50.241Z,8.8
2023-02-06T05:14:57.300Z,8.8
2023-02-06T05:16:04.487Z,8.8
2023-02-06T05:17:11.555Z,8.8
2023-02-06T05:18:18.126Z,8.8
2023-02-06T05:20:32.370Z,8.8
2023-02-06T05:21:39.473Z,8.8
2023-02-06T05:22:46.641Z,8.8
2023-02-06T05:23:53.106Z,8.8
2023-02-06T05:25:00.273Z,8.8
2023-02-06T05:26:07.512Z,8.8
2023-02-06T05:27:14.455Z,8.8
2023-02-06T05:28:21.575Z,8.8
2023-02-06T05:29:28.111Z,8.8
2023-02-06T05:30:35.307Z,8.8
2023-02-06T05:31:42.345Z,8.8
2023-02-06T05:32:49.497Z,8.8
2023-02-06T05:33:56.624Z,8.8
2023-02-06T05:35:03.117Z,8.8
2023-02-06T05:36:10.258Z,8.8
2023-02-06T05:37:17.424Z,8.8
2023-02-06T05:38:24.970Z,8.8
2023-02-06T05:39:31.618Z,8.8
2023-02-06T05:40:38.139Z,8.8
2023-02-06T05:41:45.235Z,8.8
2023-02-06T05:42:52.449Z,8.8
2023-02-06T05:44:00.046Z,8.8
2023-02-06T05:45:06.616Z,8.8
2023-02-06T05:46:13.238Z,8.8
2023-02-06T05:47:20.298Z,8.8
2023-02-06T05:48:27.381Z,8.8
2023-02-06T05:49:34.495Z,8.8
2023-02-06T05:50:43.081Z,8.8
2023-02-06T05:51:48.144Z,8.8
2023-02-06T05:51:48.205Z,8.8
2023-02-06T05:52:55.358Z,8.8
2023-02-06T05:54:02.360Z,8.8
2023-02-06T05:55:09.505Z,8.8
2023-02-06T05:56:16.130Z,8.8
2023-02-06T05:57:23.187Z,8.8
2023-02-06T05:58:30.381Z,8.8
2023-02-06T05:59:37.402Z,8.8
2023-02-06T06:00:44.482Z,8.8
2023-02-06T06:01:51.607Z,8.8
2023-02-06T06:02:58.398Z,8.8
2023-02-06T06:04:05.391Z,8.8
2023-02-06T06:05:12.395Z,8.8
2023-02-06T06:06:19.509Z,8.8
2023-02-06T06:07:26.633Z,8.8
2023-02-06T06:08:33.212Z,8.8
2023-02-06T06:09:40.393Z,8.8
2023-02-06T06:10:47.408Z,8.8
2023-02-06T06:11:54.541Z,8.8
2023-02-06T06:13:01.192Z,8.8
2023-02-06T06:14:08.229Z,8.8
2023-02-06T06:15:15.332Z,8.8
2023-02-06T06:16:22.479Z,8.8
2023-02-06T06:17:29.523Z,8.8
2023-02-06T06:18:36.152Z,8.8
2023-02-06T06:19:43.214Z,8.8
2023-02-06T06:20:50.376Z,8.8
2023-02-06T06:21:58.405Z,8.8
2023-02-06T06:24:11.199Z,8.8
2023-02-06T06:25:18.225Z,8.8
2023-02-06T06:26:25.310Z,8.8
2023-02-06T06:27:32.470Z,8.8
2023-02-06T06:28:39.600Z,8.8
2023-02-06T06:29:46.143Z,8.8
2023-02-06T06:30:53.232Z,8.8
2023-02-06T06:32:00.383Z,8.8
2023-02-06T06:33:06.972Z,8.8
2023-02-06T06:34:14.533Z,8.8
2023-02-06T06:36:28.245Z,8.8
2023-02-06T06:37:35.361Z,8.8
2023-02-06T06:38:42.509Z,8.8
2023-02-06T06:39:49.571Z,8.8
2023-02-06T06:40:57.853Z,8.8
2023-02-06T06:42:13.099Z,8.8
2023-02-06T06:43:10.371Z,8.8
2023-02-06T06:44:17.522Z,8.8
2023-02-06T06:45:24.620Z,8.9
2023-02-06T06:46:31.161Z,8.9
2023-02-06T06:47:38.271Z,8.9
2023-02-06T06:48:45.419Z,8.9
2023-02-06T06:49:52.470Z,8.9
2023-02-06T06:50:59.637Z,8.9
2023-02-06T06:52:13.415Z,8.9
2023-02-06T06:53:13.275Z,9
2023-02-06T06:54:20.476Z,9
2023-02-06T06:55:27.454Z,8.9
2023-02-06T06:56:34.593Z,8.9
2023-02-06T06:57:41.206Z,8.9
2023-02-06T06:58:48.292Z,9
2023-02-06T06:59:55.437Z,8.9
2023-02-06T07:01:02.496Z,9
2023-02-06T07:02:09.643Z,8.9
2023-02-06T07:03:16.258Z,8.9
2023-02-06T07:04:23.245Z,8.9
2023-02-06T07:05:30.436Z,8.9
2023-02-06T07:06:37.499Z,8.9
2023-02-06T07:07:44.580Z,8.9
2023-02-06T07:08:51.219Z,8.9
2023-02-06T07:09:58.282Z,8.9
2023-02-06T07:11:05.562Z,8.9
2023-02-06T07:12:13.043Z,8.9
2023-02-06T07:13:19.693Z,8.9
2023-02-06T07:14:26.186Z,9
2023-02-06T07:15:33.504Z,9
2023-02-06T07:16:40.804Z,8.9
2023-02-06T07:17:47.549Z,8.9
2023-02-06T07:18:54.641Z,9
2023-02-06T07:20:01.300Z,8.9
2023-02-06T07:21:08.357Z,8.9
2023-02-06T07:22:15.450Z,8.9
2023-02-06T07:23:22.541Z,8.9
2023-02-06T07:24:29.111Z,9
2023-02-06T07:25:36.588Z,9
2023-02-06T07:27:50.665Z,8.9
2023-02-06T07:28:57.558Z,8.9
2023-02-06T07:30:06.404Z,8.9
2023-02-06T07:31:11.222Z,9
2023-02-06T07:32:18.348Z,8.9
2023-02-06T07:33:25.423Z,9
2023-02-06T07:34:32.564Z,9
2023-02-06T07:35:39.150Z,9
2023-02-06T07:36:46.266Z,9
2023-02-06T07:37:53.452Z,8.9
2023-02-06T07:39:00.477Z,9
2023-02-06T07:40:07.569Z,9
2023-02-06T07:41:14.134Z,8.9
2023-02-06T07:42:21.224Z,8.9
2023-02-06T07:43:28.374Z,9
2023-02-06T07:44:35.475Z,9
2023-02-06T07:45:43.095Z,8.9
2023-02-06T07:46:49.150Z,9
2023-02-06T07:47:56.250Z,8.9
2023-02-06T07:49:03.331Z,9
2023-02-06T07:50:10.471Z,9
2023-02-06T07:51:17.662Z,8.9
2023-02-06T07:52:24.153Z,9
2023-02-06T07:53:31.757Z,9
2023-02-06T07:54:38.401Z,9
2023-02-06T07:56:52.581Z,9
2023-02-06T07:57:59.172Z,9
2023-02-06T07:59:06.243Z,9
2023-02-06T08:00:15.657Z,9.1
2023-02-06T08:01:20.538Z,9.1
2023-02-06T08:02:27.584Z,9.1
2023-02-06T08:04:41.321Z,9.1
2023-02-06T08:05:48.377Z,9.1
2023-02-06T08:06:55.475Z,9.1
2023-02-06T08:08:02.606Z,9.1
2023-02-06T08:09:09.163Z,9.2
2023-02-06T08:10:16.303Z,9.1
2023-02-06T08:11:23.381Z,9.1
2023-02-06T08:12:30.520Z,9.1
2023-02-06T08:13:37.693Z,9.1
2023-02-06T08:14:44.153Z,9.1
2023-02-06T08:15:51.331Z,9.1
2023-02-06T08:16:58.395Z,9.1
2023-02-06T08:18:05.469Z,9.1
2023-02-06T08:19:12.593Z,9.1
2023-02-06T08:20:19.177Z,9.1
2023-02-06T08:21:26.311Z,9.1
2023-02-06T08:22:33.382Z,9.2
2023-02-06T08:23:40.532Z,9.2
2023-02-06T08:24:47.625Z,9.1
2023-02-06T08:25:54.209Z,9.1
2023-02-06T08:27:01.333Z,9.2
2023-02-06T08:28:08.475Z,9.2
2023-02-06T08:29:15.502Z,9.2
2023-02-06T08:31:29.423Z,9.2
2023-02-06T08:32:36.337Z,9.2
2023-02-06T08:33:43.399Z,9.1
2023-02-06T08:34:50.552Z,9.2
2023-02-06T08:35:57.095Z,9.2
2023-02-06T08:37:04.202Z,9.2
2023-02-06T08:38:11.370Z,9.2
2023-02-06T08:39:18.434Z,9.2
2023-02-06T08:40:25.507Z,9.2
2023-02-06T08:41:32.102Z,9.2
2023-02-06T08:42:39.257Z,9.2
2023-02-06T08:43:46.346Z,9.2
2023-02-06T08:44:53.432Z,9.2
2023-02-06T08:46:00.629Z,9.2
2023-02-06T08:47:10.320Z,9.2
2023-02-06T08:48:14.287Z,9.2
2023-02-06T08:49:21.852Z,9.2
2023-02-06T08:50:28.423Z,9.2
2023-02-06T08:51:35.542Z,9.3
2023-02-06T08:52:42.113Z,9.2
2023-02-06T08:53:49.286Z,9.2
2023-02-06T08:54:56.296Z,9.3
2023-02-06T08:56:03.401Z,9.3
2023-02-06T08:57:10.587Z,9.3
2023-02-06T08:58:17.198Z,9.3
2023-02-06T08:59:24.222Z,9.3
2023-02-06T09:00:31.327Z,9.3
2023-02-06T09:01:38.497Z,9.3
2023-02-06T09:02:45.588Z,9.3
2023-02-06T09:03:52.174Z,9.3
2023-02-06T09:04:59.282Z,9.3
2023-02-06T09:06:10.297Z,9.3
2023-02-06T09:07:14.721Z,9.3
2023-02-06T09:08:20.563Z,9.3
2023-02-06T09:09:27.151Z,9.3
2023-02-06T09:10:34.242Z,9.3
2023-02-06T09:11:41.370Z,9.3
2023-02-06T09:12:48.464Z,9.3
2023-02-06T09:13:55.588Z,9.3
2023-02-06T09:15:02.175Z,9.4
2023-02-06T09:16:09.305Z,9.4
2023-02-06T09:17:16.461Z,9.4
2023-02-06T09:18:22.911Z,9.4
2023-02-06T09:19:30.595Z,9.4
2023-02-06T09:20:37.157Z,9.4
2023-02-06T09:21:44.226Z,9.4
2023-02-06T09:22:51.406Z,9.4
2023-02-06T09:23:58.503Z,9.5
2023-02-06T09:25:05.573Z,9.5
2023-02-06T09:26:12.189Z,9.5
2023-02-06T09:27:19.296Z,9.5
2023-02-06T09:28:26.494Z,9.5
2023-02-06T09:29:33.435Z,9.5
2023-02-06T09:30:40.670Z,9.5
2023-02-06T09:31:47.183Z,9.5
2023-02-06T09:32:54.265Z,9.5
2023-02-06T09:35:08.558Z,9.6
2023-02-06T09:36:15.069Z,9.6
2023-02-06T09:37:22.136Z,9.6
2023-02-06T09:38:29.272Z,9.6
2023-02-06T09:39:36.367Z,9.6
2023-02-06T09:40:43.481Z,9.6
2023-02-06T09:41:50.068Z,9.6
2023-02-06T09:42:57.208Z,9.6
2023-02-06T09:44:04.328Z,9.6
2023-02-06T09:45:11.423Z,9.6
2023-02-06T09:46:18.567Z,9.6
2023-02-06T09:47:25.088Z,9.6
2023-02-06T09:48:32.216Z,9.6
2023-02-06T09:49:39.337Z,9.6
2023-02-06T09:50:46.433Z,9.7
2023-02-06T09:51:53.488Z,9.7
2023-02-06T09:53:01.131Z,9.7
2023-02-06T09:54:07.325Z,9.7
2023-02-06T09:55:14.319Z,9.7
2023-02-06T09:56:21.424Z,9.7
2023-02-06T09:57:28.501Z,9.7
2023-02-06T09:58:35.129Z,9.7
2023-02-06T09:59:42.216Z,9.7
2023-02-06T10:00:49.313Z,9.7
2023-02-06T10:01:56.469Z,9.7
2023-02-06T10:03:03.522Z,9.7
2023-02-06T10:04:10.174Z,9.7
2023-02-06T10:05:17.255Z,9.7
2023-02-06T10:06:24.279Z,9.7
2023-02-06T10:07:31.437Z,9.7
2023-02-06T10:08:38.584Z,9.7
2023-02-06T10:09:45.156Z,9.7
2023-02-06T10:10:52.203Z,9.7
2023-02-06T10:11:59.315Z,9.6
2023-02-06T10:13:06.456Z,9.6
2023-02-06T10:14:13.552Z,9.6
2023-02-06T10:15:20.162Z,9.6
2023-02-06T10:16:27.282Z,9.6
2023-02-06T10:17:34.333Z,9.6
2023-02-06T10:18:41.486Z,9.6
2023-02-06T10:19:48.561Z,9.7
2023-02-06T10:20:55.101Z,9.7
2023-02-06T10:22:02.277Z,9.7
2023-02-06T10:23:09.373Z,9.7
2023-02-06T10:24:16.432Z,9.7
2023-02-06T10:25:23.529Z,9.7
2023-02-06T10:26:30.141Z,9.8
2023-02-06T10:27:37.270Z,9.8
2023-02-06T10:28:44.351Z,9.8
2023-02-06T10:29:51.509Z,9.8
2023-02-06T10:30:58.654Z,9.8
2023-02-06T10:32:05.149Z,9.9
2023-02-06T10:33:24.861Z,9.8
2023-02-06T10:34:19.432Z,9.8
2023-02-06T10:35:26.479Z,9.8
2023-02-06T10:36:33.552Z,9.8
2023-02-06T10:38:47.270Z,9.8
2023-02-06T10:39:54.391Z,9.8
2023-02-06T10:41:01.466Z,9.8
2023-02-06T10:42:08.692Z,9.8
2023-02-06T10:43:15.183Z,9.8
2023-02-06T10:44:22.525Z,9.8
2023-02-06T10:45:29.401Z,9.8
2023-02-06T10:46:36.617Z,9.8
2023-02-06T10:47:43.028Z,9.8
2023-02-06T10:48:50.239Z,9.8
2023-02-06T10:49:57.348Z,9.8
2023-02-06T10:51:04.348Z,9.8
2023-02-06T10:52:11.554Z,9.8
2023-02-06T10:53:18.306Z,9.8
2023-02-06T10:54:25.146Z,9.8
2023-02-06T10:55:32.306Z,9.8
2023-02-06T10:56:39.893Z,9.9
2023-02-06T10:57:46.580Z,9.8
2023-02-06T10:58:53.166Z,9.9
2023-02-06T11:01:23.715Z,9.9
2023-02-06T11:02:14.418Z,9.9
2023-02-06T11:03:21.522Z,9.9
2023-02-06T11:04:28.137Z,9.9
2023-02-06T11:05:35.673Z,9.9
2023-02-06T11:06:42.261Z,9.9
2023-02-06T11:07:49.495Z,9.9
2023-02-06T11:08:56.600Z,9.9
2023-02-06T11:10:03.061Z,9.9
2023-02-06T11:11:10.188Z,9.9
2023-02-06T11:12:17.363Z,9.9
2023-02-06T11:13:24.378Z,9.9
2023-02-06T11:14:31.542Z,9.9
2023-02-06T11:15:38.452Z,9.9
2023-02-06T11:16:45.181Z,9.9
2023-02-06T11:17:52.339Z,9.9
2023-02-06T11:18:59.518Z,9.9
2023-02-06T11:20:06.549Z,9.9
2023-02-06T11:21:13.104Z,9.9
2023-02-06T11:22:20.182Z,9.8
2023-02-06T11:23:27.318Z,9.8
2023-02-06T11:24:34.446Z,9.8
2023-02-06T11:25:41.550Z,9.8
2023-02-06T11:26:48.152Z,9.8
2023-02-06T11:27:55.292Z,9.8
2023-02-06T11:29:02.345Z,9.8
2023-02-06T11:30:09.431Z,9.8
2023-02-06T11:31:16.549Z,9.8
2023-02-06T11:32:23.103Z,9.8
2023-02-06T11:33:30.314Z,9.8
2023-02-06T11:34:37.376Z,9.7
2023-02-06T11:35:44.442Z,9.7
2023-02-06T11:36:51.581Z,9.7
2023-02-06T11:37:58.127Z,9.7
2023-02-06T11:39:05.230Z,9.7
2023-02-06T11:40:12.343Z,9.7
2023-02-06T11:42:26.575Z,9.7
2023-02-06T11:43:33.221Z,9.7
2023-02-06T11:44:40.244Z,9.7
2023-02-06T11:45:47.434Z,9.7
2023-02-06T11:46:54.454Z,9.7
2023-02-06T11:48:01.539Z,9.7
2023-02-06T11:49:08.167Z,9.7
2023-02-06T11:50:15.795Z,9.7
2023-02-06T11:51:22.383Z,9.7
2023-02-06T11:52:29.496Z,9.7
2023-02-06T11:53:36.095Z,9.7
2023-02-06T11:54:43.149Z,9.7
2023-02-06T11:55:50.265Z,9.7
2023-02-06T11:56:57.407Z,9.7
2023-02-06T11:58:04.444Z,9.7
2023-02-06T11:59:11.180Z,9.7
2023-02-06T12:00:18.649Z,9.8
2023-02-06T12:01:25.280Z,9.8
2023-02-06T12:02:32.448Z,9.8
2023-02-06T12:03:39.041Z,9.8
2023-02-06T12:04:46.067Z,9.8
2023-02-06T12:05:53.163Z,9.8
2023-02-06T12:07:00.299Z,9.8
2023-02-06T12:08:07.401Z,9.8
2023-02-06T12:09:14.512Z,9.8
2023-02-06T12:10:21.102Z,9.8
2023-02-06T12:11:28.233Z,9.8
2023-02-06T12:12:35.255Z,9.9
2023-02-06T12:13:42.391Z,9.9
2023-02-06T12:14:49.531Z,9.8
2023-02-06T12:15:56.129Z,9.8
2023-02-06T12:17:03.213Z,9.8
2023-02-06T12:18:10.287Z,9.8
2023-02-06T12:19:17.438Z,9.8
2023-02-06T12:20:26.742Z,9.8
2023-02-06T12:21:31.088Z,9.8
2023-02-06T12:22:38.242Z,9.8
2023-02-06T12:23:45.284Z,9.8
2023-02-06T12:24:52.394Z,9.8
2023-02-06T12:25:59.535Z,9.8
2023-02-06T12:27:06.089Z,9.8
2023-02-06T12:29:20.305Z,9.7
2023-02-06T12:30:27.451Z,9.7
2023-02-06T12:31:34.592Z,9.8
2023-02-06T12:32:41.148Z,9.7
2023-02-06T12:33:48.291Z,9.8
2023-02-06T12:34:55.332Z,9.7
2023-02-06T12:36:02.425Z,9.8
2023-02-06T12:37:09.577Z,9.8
2023-02-06T12:38:16.130Z,9.8
2023-02-06T12:39:23.185Z,9.8
2023-02-06T12:40:30.347Z,9.8
2023-02-06T12:41:37.433Z,9.9
2023-02-06T12:42:44.528Z,9.9
2023-02-06T12:43:51.197Z,9.9
2023-02-06T12:46:05.342Z,9.9
2023-02-06T12:47:12.474Z,9.9
2023-02-06T12:48:19.525Z,9.9
2023-02-06T12:49:26.160Z,10
2023-02-06T12:50:33.223Z,9.9
2023-02-06T12:51:40.401Z,10
2023-02-06T12:52:47.479Z,10
2023-02-06T12:53:54.534Z,10
2023-02-06T12:55:01.115Z,10
2023-02-06T12:56:08.270Z,10
2023-02-06T12:57:15.361Z,10
2023-02-06T12:58:22.447Z,10
2023-02-06T12:59:29.594Z,10
2023-02-06T13:00:36.206Z,10
2023-02-06T13:01:43.286Z,10
2023-02-06T13:02:50.408Z,10
2023-02-06T13:03:57.966Z,10.1
2023-02-06T13:05:04.584Z,10.1
2023-02-06T13:06:11.188Z,10.2
2023-02-06T13:07:18.284Z,10.2
2023-02-06T13:08:26.692Z,10.2
2023-02-06T13:09:32.489Z,10.2
2023-02-06T13:10:39.578Z,10.2
2023-02-06T13:11:46.175Z,10.2
2023-02-06T13:12:53.227Z,10.2
2023-02-06T13:14:00.448Z,10.2
2023-02-06T13:15:07.515Z,10.2
2023-02-06T13:16:14.086Z,10.2
2023-02-06T13:17:21.188Z,10.2
2023-02-06T13:18:28.292Z,10.2
2023-02-06T13:19:35.438Z,10.2
2023-02-06T13:20:42.517Z,10.2
2023-02-06T13:21:49.069Z,10.1
2023-02-06T13:22:56.267Z,10.1
2023-02-06T13:24:03.299Z,10.1
2023-02-06T13:25:10.404Z,10
2023-02-06T13:26:16.974Z,10
2023-02-06T13:27:24.048Z,10
2023-02-06T13:28:31.231Z,10
2023-02-06T13:29:38.312Z,10
2023-02-06T13:30:45.468Z,10
2023-02-06T13:31:52.527Z,10
2023-02-06T13:32:59.098Z,10
2023-02-06T13:34:06.374Z,10
2023-02-06T13:35:13.261Z,10
2023-02-06T13:36:20.413Z,10
2023-02-06T13:37:27.519Z,10
2023-02-06T13:38:34.211Z,10
2023-02-06T13:39:41.217Z,10
2023-02-06T13:40:48.331Z,10
2023-02-06T13:41:55.411Z,10
2023-02-06T13:43:02.533Z,10
2023-02-06T13:44:09.123Z,10
2023-02-06T13:45:16.248Z,10
2023-02-06T13:46:23.307Z,10
2023-02-06T13:47:30.411Z,10
2023-02-06T13:49:44.109Z,10.1
2023-02-06T13:50:51.215Z,10.1
2023-02-06T13:51:58.339Z,10.1
2023-02-06T13:53:05.440Z,10.1
2023-02-06T13:54:12.523Z,10.1
2023-02-06T13:55:19.151Z,10.1
2023-02-06T13:57:33.342Z,10.1
2023-02-06T13:58:40.552Z,10.1
2023-02-06T13:59:47.550Z,10.1
2023-02-06T14:00:54.121Z,10.2
2023-02-06T14:02:01.355Z,10.1
2023-02-06T14:03:08.384Z,10.2
2023-02-06T14:04:15.580Z,10.2
2023-02-06T14:05:22.598Z,10.1
2023-02-06T14:06:29.179Z,10.2
2023-02-06T14:07:36.794Z,10.1
2023-02-06T14:08:43.412Z,10.2
2023-02-06T14:09:50.471Z,10.2
2023-02-06T14:10:57.562Z,10.2
2023-02-06T14:12:04.146Z,10.2
2023-02-06T14:13:11.283Z,10.2
2023-02-06T14:14:18.382Z,10.2
2023-02-06T14:15:25.661Z,10.2
2023-02-06T14:16:32.596Z,10.2
2023-02-06T14:17:39.229Z,10.2
2023-02-06T14:18:46.252Z,10.2
2023-02-06T14:19:53.369Z,10.1
2023-02-06T14:21:00.418Z,10.1
2023-02-06T14:22:07.106Z,10.1
2023-02-06T14:23:14.139Z,10.1
2023-02-06T14:24:21.288Z,10.1
2023-02-06T14:25:28.366Z,10.1
2023-02-06T14:26:35.500Z,10.1
2023-02-06T14:27:42.076Z,10.1
2023-02-06T14:28:49.154Z,10.1
2023-02-06T14:29:56.249Z,10.1
2023-02-06T14:31:03.478Z,10.1
2023-02-06T14:32:10.517Z,10.1
2023-02-06T14:33:17.607Z,10.1
2023-02-06T14:34:24.205Z,10
2023-02-06T14:35:31.263Z,10
2023-02-06T14:36:38.364Z,10
2023-02-06T14:37:45.453Z,10
2023-02-06T14:38:52.093Z,10
2023-02-06T14:40:04.537Z,10
2023-02-06T14:41:06.268Z,10
2023-02-06T14:42:13.409Z,9.9
2023-02-06T14:43:20.525Z,9.9
2023-02-06T14:44:27.166Z,9.9
2023-02-06T14:45:41.762Z,9.9
2023-02-06T14:46:41.478Z,9.9
2023-02-06T14:47:48.651Z,9.8
2023-02-06T14:48:54.970Z,9.8
2023-02-06T14:50:02.071Z,9.8
2023-02-06T14:51:09.149Z,9.8
2023-02-06T14:53:23.420Z,9.7
2023-02-06T14:54:30.515Z,9.7
2023-02-06T14:55:37.467Z,9.7
2023-02-06T14:56:44.217Z,9.7
2023-02-06T14:57:51.326Z,9.7
2023-02-06T14:58:58.504Z,9.7
2023-02-06T15:00:05.562Z,9.7
2023-02-06T15:01:12.100Z,9.7
2023-02-06T15:02:19.204Z,9.7
2023-02-06T15:03:26.328Z,9.7
2023-02-06T15:04:33.419Z,9.7
2023-02-06T15:05:40.517Z,9.7
2023-02-06T15:06:47.135Z,9.7
2023-02-06T15:07:54.233Z,9.8
2023-02-06T15:09:01.434Z,9.8
2023-02-06T15:10:08.421Z,9.8
2023-02-06T15:11:16.085Z,9.8
2023-02-06T15:12:22.131Z,9.8
2023-02-06T15:13:29.222Z,9.8
2023-02-06T15:14:36.319Z,9.8
2023-02-06T15:15:43.393Z,9.8
2023-02-06T15:16:50.536Z,9.8
2023-02-06T15:17:57.171Z,9.8
2023-02-06T15:19:04.249Z,9.8
2023-02-06T15:20:11.341Z,9.8
2023-02-06T15:21:18.457Z,9.8
2023-02-06T15:22:24.983Z,9.8
2023-02-06T15:23:32.153Z,9.8
2023-02-06T15:25:46.374Z,9.8
2023-02-06T15:26:53.430Z,9.7
2023-02-06T15:28:00.078Z,9.7
2023-02-06T15:29:07.168Z,9.7
2023-02-06T15:30:15.854Z,9.7
2023-02-06T15:31:21.389Z,9.7
2023-02-06T15:32:28.452Z,9.7
2023-02-06T15:33:35.034Z,9.7
2023-02-06T15:34:42.252Z,9.7
2023-02-06T15:35:49.284Z,9.7
2023-02-06T15:36:56.401Z,9.7
2023-02-06T15:38:03.457Z,9.7
2023-02-06T15:39:10.100Z,9.6
2023-02-06T15:40:17.192Z,9.7
2023-02-06T15:41:24.251Z,9.6
2023-02-06T15:42:31.390Z,9.7
2023-02-06T15:43:38.473Z,9.7
2023-02-06T15:44:45.113Z,9.6
2023-02-06T15:45:52.224Z,9.6
2023-02-06T15:46:59.273Z,9.6
2023-02-06T15:48:06.403Z,9.6
2023-02-06T15:49:14.173Z,9.6
2023-02-06T15:50:20.158Z,9.6
2023-02-06T15:51:27.161Z,9.6
2023-02-06T15:52:34.242Z,9.5
2023-02-06T15:53:41.420Z,9.5
2023-02-06T15:54:48.505Z,9.5
2023-02-06T15:57:02.168Z,9.5
2023-02-06T15:58:09.303Z,9.5
2023-02-06T15:59:16.473Z,9.5
2023-02-06T16:00:23.585Z,9.5
2023-02-06T16:01:30.592Z,9.4
2023-02-06T16:02:37.243Z,9.4
2023-02-06T16:03:44.290Z,9.4
2023-02-06T16:04:51.399Z,9.3
2023-02-06T16:05:58.564Z,9.3
2023-02-06T16:07:05.108Z,9.3
2023-02-06T16:08:12.217Z,9.3
2023-02-06T16:09:19.393Z,9.3
2023-02-06T16:10:26.403Z,9.2
2023-02-06T16:11:33.482Z,9.2
2023-02-06T16:12:40.113Z,9.2
2023-02-06T16:13:47.186Z,9.1
2023-02-06T16:14:54.837Z,9.2
2023-02-06T16:16:01.799Z,9.1
2023-02-06T16:17:08.563Z,9.1
2023-02-06T16:18:15.110Z,9.1
2023-02-06T16:19:22.271Z,9
2023-02-06T16:20:29.313Z,9
2023-02-06T16:21:36.440Z,9
2023-02-06T16:22:43.563Z,9
2023-02-06T16:23:50.134Z,8.9
2023-02-06T16:24:57.204Z,9
2023-02-06T16:26:04.307Z,8.9
2023-02-06T16:27:11.411Z,8.9
2023-02-06T16:28:18.592Z,9
2023-02-06T16:29:25.151Z,8.9
2023-02-06T16:30:32.377Z,8.9
2023-02-06T16:31:39.474Z,9
2023-02-06T16:32:46.464Z,8.9
2023-02-06T16:33:53.533Z,8.9
2023-02-06T16:35:00.115Z,8.9
2023-02-06T16:36:07.220Z,8.9
2023-02-06T16:37:14.334Z,9
2023-02-06T16:38:21.574Z,8.9